Time;durP1;ratioP1;P1;durP2;ratioP2;P2;SDS_P1;SDS_P2;PMS_P1;PMS_P2;Temp;Humidity;BMP_temperature;BMP_pressure;BME280_temperature;BME280_humidity;BME280_pressure;Samples;Min_cycle;Max_cycle;Signal;HPM_P1;HPM_P2
2022/06/12 00:02:00;;;;;;;5.47;2.70;;;;;;;19.15;69.07;100292.59;12209733;19;20073;-81
2022/06/12 00:06:03;;;;;;;4.38;2.47;;;;;;;19.09;69.29;100292.66;12203745;19;20646;-81
2022/06/12 00:10:05;;;;;;;4.68;2.55;;;;;;;19.04;69.71;100289.94;12183891;19;20078;-81
2022/06/12 00:14:07;;;;;;;4.77;2.60;;;;;;;18.95;70.72;100290.84;12231619;19;20014;-84
2022/06/12 00:18:09;;;;;;;5.13;2.40;;;;;;;18.89;70.46;100288.13;12239968;19;20003;-83
2022/06/12 00:22:11;;;;;;;5.85;2.80;;;;;;;18.81;71.73;100290.69;12198966;19;21025;-81
2022/06/12 00:26:17;;;;;;;5.97;2.83;;;;;;;18.73;72.56;100288.50;12236051;19;20041;-82
2022/06/12 00:30:22;;;;;;;7.85;2.60;;;;;;;18.72;73.36;100298.00;12231123;19;20734;-81
2022/06/12 00:34:27;;;;;;;6.90;3.00;;;;;;;18.65;73.98;100293.59;12207412;19;20014;-82
2022/06/12 00:38:29;;;;;;;6.60;3.05;;;;;;;18.60;74.13;100290.84;12232334;19;20056;-83
2022/06/12 00:42:45;;;;;;;8.50;3.20;;;;;;;18.57;75.10;100290.59;12201551;19;20074;-82
2022/06/12 00:46:51;;;;;;;5.72;2.67;;;;;;;18.54;74.90;100296.75;12218208;19;20010;-81
2022/06/12 00:51:02;;;;;;;9.05;3.03;;;;;;;18.50;75.52;100295.66;12214351;19;20094;-81
2022/06/12 00:55:16;;;;;;;7.45;3.15;;;;;;;18.42;75.86;100297.97;12191220;19;20022;-80
2022/06/12 00:59:32;;;;;;;6.28;3.20;;;;;;;18.39;76.49;100301.34;12206157;19;20059;-80
2022/06/12 01:06:33;;;;;;;4.07;3.00;;;;;;;18.34;76.58;100303.31;12202138;19;20010;-82
2022/06/12 01:07:58;;;;;;;5.43;2.80;;;;;;;18.31;77.29;100295.53;12234751;19;20010;-81
2022/06/12 01:12:04;;;;;;;5.13;3.03;;;;;;;18.27;77.56;100292.50;12231295;19;20048;-82
2022/06/12 01:16:19;;;;;;;6.03;3.30;;;;;;;18.27;78.28;100288.88;12204536;19;20019;-80
2022/06/12 01:20:25;;;;;;;6.00;3.53;;;;;;;18.24;78.28;100286.66;12212150;19;21949;-80
2022/06/12 01:24:53;;;;;;;6.60;3.53;;;;;;;18.26;79.74;100298.34;12206498;19;20011;-80
2022/06/12 01:29:24;;;;;;;7.35;3.63;;;;;;;18.22;79.81;100296.13;12215092;19;20003;-80
2022/06/12 01:33:34;;;;;;;7.30;3.47;;;;;;;18.22;79.88;100290.56;12211596;19;20024;-81
2022/06/12 01:37:48;;;;;;;5.43;3.28;;;;;;;18.20;80.45;100290.03;12214752;19;20825;-81
2022/06/12 01:42:03;;;;;;;9.30;4.20;;;;;;;18.17;81.30;100295.34;12220265;19;20019;-81
2022/06/12 01:46:17;;;;;;;6.85;3.15;;;;;;;18.19;81.62;100296.72;12199502;19;20010;-81
2022/06/12 01:50:30;;;;;;;4.32;3.17;;;;;;;18.14;82.57;100293.94;12211139;19;20010;-80
2022/06/12 01:54:41;;;;;;;6.85;3.72;;;;;;;18.11;82.35;100283.38;12202010;19;20018;-80
2022/06/12 01:58:47;;;;;;;7.63;4.38;;;;;;;18.09;82.97;100295.97;12214128;19;21602;-80
2022/06/12 02:02:55;;;;;;;7.55;3.65;;;;;;;18.08;83.22;100289.53;12212822;19;20090;-80
2022/06/12 02:07:14;;;;;;;10.63;4.20;;;;;;;18.06;84.05;100296.53;12204095;19;20010;-81
2022/06/12 02:16:12;;;;;;;7.72;3.92;;;;;;;18.07;84.57;100293.44;12194609;19;20090;-81
2022/06/12 02:20:18;;;;;;;6.55;3.92;;;;;;;18.07;85.04;100296.25;12211348;19;20393;-82
2022/06/12 02:24:27;;;;;;;9.05;4.15;;;;;;;18.08;85.34;100302.66;12213243;19;21355;-80
2022/06/12 02:28:40;;;;;;;6.30;3.67;;;;;;;18.05;85.66;100290.09;12195133;19;20007;-80
2022/06/12 02:33:01;;;;;;;;;;;;;;;18.02;85.67;100292.63;12214085;19;20077;-80
2022/06/12 02:37:10;;;;;;;5.50;3.65;;;;;;;17.98;85.34;100303.53;12196743;19;19911;-80
2022/06/12 02:41:44;;;;;;;6.78;3.45;;;;;;;17.99;86.15;100299.63;12216198;19;20498;-79
2022/06/12 02:46:01;;;;;;;5.13;3.55;;;;;;;17.99;86.38;100296.84;12193226;19;20014;-80
2022/06/12 02:50:03;;;;;;;6.30;3.55;;;;;;;17.94;86.16;100289.34;12215897;19;20078;-80
2022/06/12 02:54:20;;;;;;;10.43;3.42;;;;;;;17.93;86.97;100298.81;12206413;19;20014;-79
2022/06/12 02:58:42;;;;;;;7.90;3.38;;;;;;;17.89;87.52;100296.91;12191079;19;20034;-81
2022/06/12 03:02:57;;;;;;;6.13;3.80;;;;;;;17.83;87.36;100304.44;12205935;19;20057;-80
2022/06/12 03:06:59;;;;;;;4.80;3.67;;;;;;;17.79;87.60;100311.72;12188441;19;20010;-84
2022/06/12 03:11:06;;;;;;;7.20;3.45;;;;;;;17.74;88.31;100306.97;12209806;19;20018;-82
2022/06/12 03:15:38;;;;;;;6.80;3.63;;;;;;;17.75;89.04;100305.84;12207040;19;20036;-81
2022/06/12 03:19:47;;;;;;;5.65;3.30;;;;;;;17.71;89.02;100306.72;12187654;19;20010;-79
2022/06/12 03:24:24;;;;;;;10.30;3.97;;;;;;;17.66;89.74;100315.91;12213011;19;20425;-82
2022/06/12 03:28:43;;;;;;;5.80;3.58;;;;;;;17.63;89.38;100316.47;12190701;19;20014;-79
2022/06/12 03:33:07;;;;;;;9.00;4.30;;;;;;;17.58;90.15;100318.44;12204114;19;20018;-83
2022/06/12 03:37:41;;;;;;;8.77;3.88;;;;;;;17.59;90.82;100329.31;12185478;19;20034;-80
2022/06/12 03:41:42;;;;;;;;;;;;;;;17.56;90.40;100327.09;12197647;19;20034;-82
2022/06/12 03:46:05;;;;;;;4.93;3.35;;;;;;;17.53;90.31;100327.69;12187625;19;19942;-82
2022/06/12 03:50:34;;;;;;;5.72;3.55;;;;;;;17.52;90.27;100329.63;12203522;19;20071;-82
2022/06/12 03:54:43;;;;;;;4.45;3.30;;;;;;;17.51;90.66;100335.47;12181186;19;20117;-83
2022/06/12 03:58:55;;;;;;;8.82;4.30;;;;;;;17.51;91.08;100335.47;12206936;19;20019;-79
2022/06/12 04:03:03;;;;;;;4.80;3.45;;;;;;;17.50;91.41;100334.66;12209047;19;20006;-79
2022/06/12 04:07:09;;;;;;;6.55;3.78;;;;;;;17.50;92.24;100333.81;12184669;19;20018;-79
2022/06/12 04:11:14;;;;;;;8.00;3.72;;;;;;;17.55;92.07;100331.03;12212940;19;20017;-81
2022/06/12 04:15:48;;;;;;;9.18;4.80;;;;;;;17.59;92.53;100328.50;12210329;19;19998;-82
2022/06/12 04:20:00;;;;;;;8.65;3.92;;;;;;;17.60;92.42;100322.63;12183965;19;20006;-79
2022/06/12 04:24:13;;;;;;;8.50;3.50;;;;;;;17.62;93.16;100331.53;12210584;19;20011;-82
2022/06/12 04:28:32;;;;;;;6.20;3.50;;;;;;;17.58;94.44;100324.88;12197836;19;20042;-82
2022/06/12 04:32:33;;;;;;;7.82;4.03;;;;;;;17.59;94.16;100331.28;12250987;19;20011;-80
2022/06/12 04:36:35;;;;;;;6.32;4.55;;;;;;;17.61;94.27;100329.88;12217717;19;20014;-83
2022/06/12 04:40:37;;;;;;;5.70;3.10;;;;;;;17.63;94.74;100336.00;12227214;19;20007;-80
2022/06/12 04:44:39;;;;;;;5.70;3.72;;;;;;;17.66;95.31;100332.63;12231507;19;20578;-81
2022/06/12 04:48:43;;;;;;;5.97;3.80;;;;;;;17.68;95.68;100337.94;12202156;19;20015;-83
2022/06/12 04:52:44;;;;;;;6.15;3.42;;;;;;;17.80;94.95;100334.84;12216063;19;20390;-82
2022/06/12 04:56:47;;;;;;;5.68;3.50;;;;;;;17.84;94.84;100327.59;12216689;19;20365;-82
2022/06/12 05:00:49;;;;;;;;;;;;;;;17.83;95.70;100334.28;12202356;19;20015;-81
2022/06/12 05:04:52;;;;;;;6.90;3.63;;;;;;;17.89;95.07;100339.53;12213525;19;19914;-81
2022/06/12 05:08:53;;;;;;;;;;;;;;;17.93;95.89;100337.00;12218401;19;20010;-82
2022/06/12 05:12:55;;;;;;;8.98;3.90;;;;;;;18.01;95.26;100330.03;12199896;19;19907;-82
2022/06/12 05:17:01;;;;;;;6.32;3.53;;;;;;;18.07;95.22;100329.69;12219806;19;20010;-81
2022/06/12 05:21:03;;;;;;;8.43;4.97;;;;;;;18.13;95.15;100328.56;12212910;19;20021;-81
2022/06/12 05:25:05;;;;;;;6.90;3.58;;;;;;;18.24;94.32;100331.28;12195358;19;20019;-81
2022/06/12 05:29:12;;;;;;;5.28;4.05;;;;;;;18.34;94.06;100320.88;12222522;19;20010;-82
2022/06/12 05:33:14;;;;;;;5.97;3.78;;;;;;;18.45;93.39;100327.25;12223032;19;20095;-82
2022/06/12 05:37:16;;;;;;;7.60;3.97;;;;;;;18.55;93.48;100326.31;12191205;19;20496;-83
2022/06/12 05:41:20;;;;;;;5.60;3.20;;;;;;;18.66;92.66;100334.34;12207523;19;20030;-81
2022/06/12 05:45:24;;;;;;;6.22;3.78;;;;;;;18.79;92.00;100324.47;12210950;19;20086;-82
2022/06/12 05:49:27;;;;;;;5.70;3.58;;;;;;;18.96;91.56;100338.03;12194466;19;20078;-82
2022/06/12 05:53:31;;;;;;;9.57;4.28;;;;;;;19.08;91.03;100340.44;12202412;19;20010;-82
2022/06/12 05:57:32;;;;;;;6.82;3.67;;;;;;;19.22;90.75;100343.38;12183947;19;20046;-83
2022/06/12 06:01:36;;;;;;;7.50;3.80;;;;;;;19.39;90.06;100351.31;12203976;19;20484;-82
2022/06/12 06:05:41;;;;;;;9.32;3.85;;;;;;;19.52;89.65;100345.84;12194161;19;20023;-80
2022/06/12 06:09:42;;;;;;;6.55;3.92;;;;;;;19.73;88.35;100342.84;12191404;19;20488;-83
2022/06/12 06:13:45;;;;;;;9.40;4.80;;;;;;;19.92;87.28;100351.28;12206122;19;20023;-82
2022/06/12 06:17:48;;;;;;;7.93;4.05;;;;;;;20.12;86.94;100341.78;12212774;19;20034;-83
2022/06/12 06:21:49;;;;;;;;;;;;;;;20.26;86.17;100353.91;12183205;19;20166;-83
2022/06/12 06:25:51;;;;;;;8.10;3.90;;;;;;;20.45;84.79;100345.50;12206305;19;19917;-82
2022/06/12 06:29:53;;;;;;;6.75;3.85;;;;;;;20.64;83.86;100345.53;12206278;19;20007;-83
2022/06/12 06:33:55;;;;;;;8.32;4.75;;;;;;;20.85;82.02;100346.88;12188624;19;20013;-82
2022/06/12 06:37:56;;;;;;;7.03;4.07;;;;;;;21.14;79.57;100348.63;12205232;19;20007;-82
2022/06/12 06:41:58;;;;;;;4.88;3.58;;;;;;;21.37;78.33;100344.84;12202886;19;20480;-83
2022/06/12 06:46:15;;;;;;;10.48;3.75;;;;;;;21.50;77.29;100337.59;12186565;19;20011;-81
2022/06/12 06:50:21;;;;;;;5.60;3.97;;;;;;;21.72;75.13;100336.91;12192588;19;21017;-82
2022/06/12 06:54:22;;;;;;;5.47;3.25;;;;;;;21.96;74.74;100335.84;12181662;19;20007;-81
2022/06/12 06:58:26;;;;;;;7.75;3.75;;;;;;;22.15;74.28;100336.53;12181136;19;20016;-82
2022/06/12 07:02:28;;;;;;;5.75;2.80;;;;;;;22.38;72.33;100336.63;12191404;19;20054;-80
2022/06/12 07:06:30;;;;;;;6.70;2.75;;;;;;;22.57;70.22;100336.47;12191517;19;20095;-82
2022/06/12 07:10:34;;;;;;;4.15;2.55;;;;;;;22.73;68.23;100338.59;12212124;19;20010;-81
2022/06/12 07:14:35;;;;;;;6.18;2.75;;;;;;;23.01;66.79;100343.28;12203256;19;20006;-81
2022/06/12 07:18:37;;;;;;;4.57;2.78;;;;;;;23.21;65.38;100337.13;12193612;19;20011;-82
2022/06/12 07:22:39;;;;;;;5.80;2.63;;;;;;;23.50;64.63;100342.25;12204169;19;20085;-83
2022/06/12 07:26:45;;;;;;;7.65;2.50;;;;;;;23.72;63.11;100337.72;12208683;19;20006;-81
2022/06/12 07:30:47;;;;;;;5.38;2.40;;;;;;;23.93;61.89;100344.41;12188177;19;20000;-81
2022/06/12 07:34:50;;;;;;;9.27;2.15;;;;;;;24.16;60.65;100336.69;12201423;19;20109;-81
2022/06/12 07:38:52;;;;;;;5.15;2.40;;;;;;;24.38;59.75;100337.72;12217014;19;20038;-82
2022/06/12 07:43:13;;;;;;;6.67;2.83;;;;;;;24.59;58.40;100329.47;12185960;19;20014;-82
2022/06/12 07:47:15;;;;;;;3.60;2.13;;;;;;;24.59;58.42;100333.09;12206951;19;20015;-82
2022/06/12 07:51:19;;;;;;;5.72;2.60;;;;;;;24.74;58.01;100323.31;12204586;19;20479;-82
2022/06/12 07:55:22;;;;;;;5.25;2.50;;;;;;;24.93;56.52;100328.63;12213312;19;20294;-81
2022/06/12 07:59:27;;;;;;;7.68;2.90;;;;;;;25.18;56.55;100324.94;12229071;19;20011;-82
2022/06/12 08:03:33;;;;;;;3.72;2.35;;;;;;;25.41;56.69;100319.91;12183406;19;20031;-81
2022/06/12 08:07:34;;;;;;;6.95;2.67;;;;;;;25.64;55.24;100328.09;12215251;19;20018;-82
2022/06/12 08:11:37;;;;;;;8.27;3.27;;;;;;;25.86;54.64;100319.41;12233614;19;20018;-81
2022/06/12 08:15:45;;;;;;;5.75;2.78;;;;;;;26.13;53.12;100317.25;12207855;19;20015;-81
2022/06/12 08:24:09;;;;;;;6.53;3.58;;;;;;;26.10;52.82;100310.28;12213416;19;20499;-82
2022/06/12 08:28:11;;;;;;;7.43;3.20;;;;;;;26.20;53.21;100317.50;12201227;19;20015;-82
2022/06/12 08:32:20;;;;;;;6.13;2.70;;;;;;;26.30;53.00;100317.13;12203495;19;20010;-82
2022/06/12 08:36:22;;;;;;;5.10;2.97;;;;;;;26.31;52.67;100321.59;12208473;19;20003;-80
2022/06/12 08:40:27;;;;;;;;;;;;;;;26.28;52.40;100319.47;12182015;19;20459;-83
2022/06/12 08:44:37;;;;;;;5.85;3.35;;;;;;;26.24;52.98;100321.31;12208849;19;20366;-84
2022/06/12 08:49:01;;;;;;;7.28;3.40;;;;;;;26.31;51.98;100309.47;12214455;19;20015;-82
2022/06/12 08:53:35;;;;;;;;;;;;;;;;;;;;;
2022/06/12 08:57:57;;;;;;;5.45;2.67;;;;;;;26.57;50.71;100304.47;12211191;19;20034;-81
2022/06/12 09:02:03;;;;;;;4.28;2.50;;;;;;;26.76;49.58;100298.31;12173920;19;20015;-81
2022/06/12 09:06:37;;;;;;;5.68;2.80;;;;;;;27.18;48.41;100303.88;12201409;19;20471;-81
2022/06/12 09:10:45;;;;;;;6.15;2.55;;;;;;;27.24;47.84;100296.84;12188174;19;20011;-83
2022/06/12 09:15:14;;;;;;;6.88;2.72;;;;;;;27.05;47.71;100294.53;12195059;19;20021;-81
2022/06/12 09:19:41;;;;;;;4.25;2.80;;;;;;;27.23;48.26;100288.72;12175385;19;20018;-82
2022/06/12 09:23:57;;;;;;;6.70;2.97;;;;;;;27.42;48.27;100279.66;12205210;19;20007;-81
2022/06/12 09:28:06;;;;;;;7.07;2.33;;;;;;;27.65;45.90;100283.69;12211587;19;20400;-81
2022/06/12 09:32:31;;;;;;;4.18;1.80;;;;;;;27.82;45.21;100281.81;12191443;19;20011;-80
2022/06/12 09:36:57;;;;;;;8.80;2.38;;;;;;;28.08;44.63;100287.94;12196300;19;20003;-82
2022/06/12 09:41:08;;;;;;;3.80;1.92;;;;;;;28.03;44.59;100278.84;12180162;19;20030;-81
2022/06/12 09:45:47;;;;;;;4.45;1.88;;;;;;;27.95;43.42;100274.97;12210376;19;20090;-81
2022/06/12 09:50:04;;;;;;;5.40;2.63;;;;;;;27.97;43.81;100275.44;12171399;19;20377;-80
2022/06/12 09:54:24;;;;;;;4.43;2.22;;;;;;;28.15;43.16;100276.81;12200471;19;20003;-81
2022/06/12 09:58:47;;;;;;;3.92;2.03;;;;;;;28.21;44.18;100274.56;12188751;19;20018;-81
2022/06/12 10:03:07;;;;;;;4.93;2.40;;;;;;;28.17;43.21;100270.81;12199320;19;20011;-80
2022/06/12 10:07:15;;;;;;;3.72;2.28;;;;;;;28.15;43.57;100261.84;12198890;19;20010;-80
2022/06/12 10:11:38;;;;;;;6.70;2.28;;;;;;;28.28;43.50;100257.78;12177812;19;20013;-79
2022/06/12 10:15:47;;;;;;;5.82;2.28;;;;;;;28.23;43.57;100260.03;12201958;19;20011;-80
2022/06/12 10:20:20;;;;;;;5.60;2.28;;;;;;;28.30;42.98;100263.09;12182745;19;20499;-79
2022/06/12 10:24:22;;;;;;;4.90;2.00;;;;;;;28.25;44.32;100260.50;12209841;19;20082;-79
2022/06/12 10:28:32;;;;;;;3.83;2.08;;;;;;;28.47;43.11;100251.50;12188044;19;20010;-80
2022/06/12 10:32:47;;;;;;;3.95;1.83;;;;;;;29.06;42.35;100247.91;12209986;19;20405;-80
2022/06/12 10:36:50;;;;;;;4.85;2.13;;;;;;;29.27;42.09;100246.81;12205803;19;20486;-80
2022/06/12 10:41:01;;;;;;;5.47;2.08;;;;;;;29.40;41.37;100239.06;12187598;19;20484;-82
2022/06/12 10:45:03;;;;;;;5.28;2.35;;;;;;;29.52;40.62;100251.13;12209591;19;20117;-80
2022/06/12 10:49:16;;;;;;;5.00;2.00;;;;;;;29.72;39.33;100242.72;12205328;19;20087;-79
2022/06/12 10:53:20;;;;;;;6.18;2.35;;;;;;;29.72;40.25;100234.19;12184975;19;20014;-80
2022/06/12 10:57:25;;;;;;;7.28;2.08;;;;;;;29.87;39.74;100224.81;12201244;19;20460;-80
2022/06/12 11:01:49;;;;;;;4.18;2.40;;;;;;;30.14;39.55;100222.16;12187796;19;20011;-79
2022/06/12 11:06:15;;;;;;;5.63;2.25;;;;;;;30.37;38.29;100219.41;12198937;19;20719;-80
2022/06/12 11:10:48;;;;;;;4.30;2.00;;;;;;;29.87;39.43;100210.59;12194725;19;20653;-80
2022/06/12 11:14:55;;;;;;;4.30;2.47;;;;;;;30.08;38.99;100196.06;12199724;19;20045;-80
2022/06/12 11:19:19;;;;;;;4.50;1.83;;;;;;;30.35;39.12;100196.25;12222543;19;20018;-80
2022/06/12 11:23:52;;;;;;;4.80;2.25;;;;;;;30.36;38.11;100203.56;12208221;19;20018;-80
2022/06/12 11:27:55;;;;;;;5.60;2.00;;;;;;;29.89;38.67;100202.50;12219046;19;20010;-79
2022/06/12 11:32:35;;;;;;;5.18;1.85;;;;;;;30.45;37.39;100191.97;12206776;19;20006;-80
2022/06/12 11:37:14;;;;;;;4.32;1.45;;;;;;;30.96;34.61;100184.03;12229084;19;20013;-80
2022/06/12 11:41:44;;;;;;;5.32;2.22;;;;;;;31.58;34.45;100169.63;12203822;19;20011;-78
2022/06/12 11:45:53;;;;;;;4.45;1.85;;;;;;;31.98;34.07;100171.06;12236667;19;20578;-79
2022/06/12 11:50:22;;;;;;;3.53;1.95;;;;;;;32.25;33.90;100168.97;12216684;19;20034;-79
2022/06/12 11:54:43;;;;;;;6.20;1.80;;;;;;;31.58;35.95;100163.94;12217638;19;20027;-82
2022/06/12 11:59:47;;;;;;;4.72;2.05;;;;;;;32.01;34.90;100167.44;12192315;19;20023;-81
2022/06/12 12:03:59;;;;;;;3.60;1.98;;;;;;;32.21;33.13;100154.63;12212092;19;20472;-81
2022/06/12 12:08:10;;;;;;;3.90;1.60;;;;;;;31.25;34.06;100151.19;12185320;19;20042;-81
2022/06/12 12:12:17;;;;;;;4.35;1.65;;;;;;;30.96;34.98;100143.38;12216211;19;20044;-81
2022/06/12 12:16:38;;;;;;;4.95;2.35;;;;;;;31.74;33.08;100136.09;12190930;19;20015;-81
2022/06/12 12:20:42;;;;;;;5.35;1.85;;;;;;;32.53;32.87;100142.81;12214157;19;20007;-83
2022/06/12 12:24:49;;;;;;;2.90;1.60;;;;;;;33.45;31.42;100136.31;12222108;19;20539;-82
2022/06/12 12:28:55;;;;;;;4.25;2.17;;;;;;;34.78;29.67;100122.66;12183152;19;20358;-81
2022/06/12 12:33:00;;;;;;;4.88;2.20;;;;;;;35.63;27.83;100118.94;12209461;19;20042;-84
2022/06/12 12:41:40;;;;;;;3.13;2.05;;;;;;;35.98;26.47;100097.94;12189035;19;20014;-82
2022/06/12 12:45:42;;;;;;;3.25;1.92;;;;;;;36.86;26.18;100105.66;12215552;19;20113;-81
2022/06/12 12:49:46;;;;;;;4.60;2.28;;;;;;;37.96;24.59;100100.09;12187417;19;20033;-82
2022/06/12 12:53:48;;;;;;;3.28;1.88;;;;;;;38.85;23.83;100093.09;12201492;19;20018;-82
2022/06/12 12:57:50;;;;;;;3.95;2.08;;;;;;;39.28;23.28;100092.31;12204975;19;20066;-82
2022/06/12 13:01:52;;;;;;;4.57;2.40;;;;;;;39.06;22.95;100082.44;12180671;19;20029;-83
2022/06/12 13:06:09;;;;;;;8.25;2.55;;;;;;;38.71;22.81;100096.97;12194419;19;20025;-83
2022/06/12 13:10:36;;;;;;;5.05;1.73;;;;;;;39.22;22.59;100067.34;12208569;19;20002;-82
2022/06/12 13:14:57;;;;;;;5.03;2.00;;;;;;;39.91;21.32;100061.88;12180727;19;20360;-82
2022/06/12 13:19:16;;;;;;;3.92;1.83;;;;;;;40.86;20.06;100060.13;12192552;19;20006;-83
2022/06/12 13:23:43;;;;;;;3.03;1.73;;;;;;;40.39;20.15;100055.44;12187238;19;20400;-82
2022/06/12 13:27:47;;;;;;;4.00;1.80;;;;;;;38.59;21.70;100062.22;12205246;19;20007;-83
2022/06/12 13:32:00;;;;;;;3.55;1.60;;;;;;;39.18;21.69;100050.13;12181733;19;20009;-83
2022/06/12 13:36:12;;;;;;;4.90;1.95;;;;;;;39.69;20.86;100030.59;12196678;19;20006;-83
2022/06/12 13:40:33;;;;;;;2.97;1.67;;;;;;;39.54;20.11;100027.19;12194273;19;20441;-83
2022/06/12 13:44:35;;;;;;;3.05;1.60;;;;;;;39.94;20.72;100026.38;12201921;19;20036;-82
2022/06/12 13:48:37;;;;;;;5.55;1.83;;;;;;;39.39;21.01;100029.56;12207651;19;20011;-83
2022/06/12 13:52:47;;;;;;;4.78;1.95;;;;;;;39.38;20.28;100018.44;12199644;19;20017;-81
2022/06/12 13:56:53;;;;;;;4.05;1.60;;;;;;;39.56;20.69;100012.31;12219485;19;20082;-83
2022/06/12 14:00:58;;;;;;;3.00;1.55;;;;;;;40.15;20.26;99999.91;12216435;19;20073;-82
2022/06/12 14:05:01;;;;;;;5.15;1.80;;;;;;;38.14;21.55;99997.09;12179026;19;20610;-80
2022/06/12 14:09:22;;;;;;;2.47;1.70;;;;;;;37.87;21.98;100002.81;12217577;19;20002;-80
2022/06/12 14:13:36;;;;;;;3.47;1.50;;;;;;;39.23;21.17;99991.94;12188870;19;19998;-80
2022/06/12 14:17:38;;;;;;;2.58;1.73;;;;;;;39.94;20.44;99988.88;12219484;19;20034;-80
2022/06/12 14:21:43;;;;;;;6.10;1.90;;;;;;;40.75;20.12;99974.56;12214286;19;20007;-81
2022/06/12 14:25:51;;;;;;;3.22;2.00;;;;;;;41.67;18.36;99964.53;12195795;19;20074;-81
2022/06/12 14:29:52;;;;;;;4.88;1.80;;;;;;;42.37;18.07;99973.53;12216080;19;20098;-80
2022/06/12 14:34:04;;;;;;;3.75;1.85;;;;;;;42.83;17.58;99959.53;12204493;19;20484;-80
2022/06/12 14:38:19;;;;;;;4.30;1.67;;;;;;;42.11;17.93;99970.59;12198696;19;20425;-80
2022/06/12 14:42:25;;;;;;;3.85;1.58;;;;;;;41.82;18.19;99973.56;12208826;19;20030;-81
2022/06/12 14:46:28;;;;;;;5.40;1.75;;;;;;;41.96;18.26;99966.56;12194698;19;20006;-80
2022/06/12 14:50:30;;;;;;;4.65;1.73;;;;;;;42.61;17.76;99953.69;12204747;19;20650;-80
2022/06/12 14:54:32;;;;;;;8.25;2.05;;;;;;;43.15;17.04;99952.59;12202620;19;20018;-81
2022/06/12 14:58:37;;;;;;;4.18;1.60;;;;;;;42.99;17.42;99955.69;12194300;19;20007;-80
2022/06/12 15:02:39;;;;;;;3.58;1.73;;;;;;;41.33;18.34;99946.97;12250143;19;20038;-81
2022/06/12 15:06:41;;;;;;;4.15;1.77;;;;;;;38.96;20.71;99957.50;12211500;19;20027;-81
2022/06/12 15:10:43;;;;;;;2.17;1.20;;;;;;;37.93;20.52;99948.47;12198239;19;20014;-81
2022/06/12 15:14:46;;;;;;;4.07;1.77;;;;;;;36.94;21.60;99949.25;12214893;19;20042;-82
2022/06/12 15:18:48;;;;;;;2.55;1.60;;;;;;;37.50;21.20;99944.13;12220772;19;20375;-82
2022/06/12 15:22:49;;;;;;;2.17;1.63;;;;;;;38.30;20.92;99936.81;12186750;19;20007;-81
2022/06/12 15:31:15;;;;;;;4.47;1.67;;;;;;;35.63;22.56;99935.50;12213429;19;20019;-83
2022/06/12 15:35:21;;;;;;;3.67;1.75;;;;;;;34.07;24.16;99934.53;12187026;19;20440;-80
2022/06/12 15:39:24;;;;;;;3.20;1.75;;;;;;;33.11;24.80;99918.69;12211370;19;20006;-81
2022/06/12 15:43:25;;;;;;;5.32;2.08;;;;;;;32.43;25.58;99916.16;12185820;19;20457;-81
2022/06/12 15:47:27;;;;;;;4.47;1.80;;;;;;;31.76;26.14;99911.44;12212291;19;20019;-80
2022/06/12 15:51:29;;;;;;;4.30;1.80;;;;;;;31.37;26.56;99905.31;12203180;19;20472;-81
2022/06/12 15:55:31;;;;;;;;;;;;;;;31.05;26.80;99900.00;12186218;19;20017;-81
2022/06/12 15:59:35;;;;;;;3.55;1.63;;;;;;;30.74;26.86;99895.50;12206195;19;19938;-80
2022/06/12 16:03:37;;;;;;;4.13;1.70;;;;;;;30.51;26.83;99889.88;12211859;19;20025;-80
2022/06/12 16:07:39;;;;;;;1.70;1.20;;;;;;;30.49;26.73;99888.59;12181715;19;20531;-81
2022/06/12 16:11:43;;;;;;;2.42;1.20;;;;;;;30.56;26.82;99886.72;12201290;19;20003;-81
2022/06/12 16:15:45;;;;;;;1.85;1.30;;;;;;;30.28;25.80;99881.41;12215195;19;20007;-79
2022/06/12 16:19:46;;;;;;;2.55;1.13;;;;;;;29.93;26.48;99882.41;12187332;19;20014;-81
2022/06/12 16:23:52;;;;;;;3.10;1.13;;;;;;;29.83;26.37;99873.69;12205888;19;20007;-80
2022/06/12 16:27:54;;;;;;;5.28;1.10;;;;;;;29.69;26.45;99866.56;12198794;19;20046;-80
2022/06/12 16:31:56;;;;;;;2.63;1.02;;;;;;;29.63;26.68;99858.75;12180308;19;20007;-81
2022/06/12 16:36:00;;;;;;;4.20;1.10;;;;;;;29.57;27.02;99863.03;12194295;19;20073;-80
2022/06/12 16:40:11;;;;;;;6.38;2.15;;;;;;;29.50;27.23;99861.72;12199814;19;20082;-81
2022/06/12 16:44:14;;;;;;;3.15;1.35;;;;;;;29.42;26.69;99859.97;12201865;19;20010;-82
2022/06/12 16:48:16;;;;;;;4.13;1.50;;;;;;;29.29;26.58;99855.63;12208385;19;20066;-80
2022/06/12 16:52:24;;;;;;;2.88;1.10;;;;;;;29.19;26.38;99859.09;12175819;19;20553;-80
2022/06/12 16:56:29;;;;;;;3.53;1.20;;;;;;;29.07;26.45;99863.72;12208755;19;20034;-80
2022/06/12 17:00:32;;;;;;;2.90;1.02;;;;;;;28.85;26.46;99858.72;12199371;19;20353;-81
2022/06/12 17:04:39;;;;;;;2.95;1.10;;;;;;;28.65;26.74;99859.94;12173909;19;20011;-80
2022/06/12 17:08:41;;;;;;;3.67;1.00;;;;;;;28.56;27.07;99854.47;12206837;19;20091;-81
2022/06/12 17:20:42;;;;;;;2.33;1.00;;;;;;;28.56;26.53;99857.31;12214288;19;20007;-80
2022/06/12 17:22:42;;;;;;;5.07;1.20;;;;;;;28.57;27.27;99856.09;12209609;19;20612;-80
2022/06/12 17:26:53;;;;;;;1.75;1.15;;;;;;;28.55;26.62;99859.28;12197902;19;20014;-80
2022/06/12 17:31:33;;;;;;;1.77;1.10;;;;;;;28.49;27.56;99860.78;12236304;19;20484;-82
2022/06/12 17:35:44;;;;;;;4.45;1.20;;;;;;;28.68;26.73;99860.00;12194831;19;20007;-80
2022/06/12 17:39:46;;;;;;;2.97;0.93;;;;;;;28.51;26.51;99863.25;12212347;19;20411;-80
2022/06/12 17:43:48;;;;;;;2.35;1.17;;;;;;;28.29;26.09;99864.72;12179891;19;20021;-80
2022/06/12 17:47:55;;;;;;;2.25;0.95;;;;;;;28.10;26.14;99876.81;12221255;19;20014;-80
2022/06/12 17:51:56;;;;;;;2.45;1.25;;;;;;;28.03;26.59;99870.97;12207849;19;20065;-80
2022/06/12 17:55:58;;;;;;;1.15;0.90;;;;;;;27.95;26.86;99867.94;12182610;19;20010;-79
2022/06/12 18:00:00;;;;;;;1.77;0.88;;;;;;;27.87;27.03;99868.97;12213223;19;20113;-80
2022/06/12 18:04:04;;;;;;;2.10;0.93;;;;;;;27.76;27.26;99867.03;12201355;19;20453;-78
2022/06/12 18:08:05;;;;;;;2.33;1.15;;;;;;;27.63;27.52;99866.25;12191250;19;20021;-79
2022/06/12 18:12:08;;;;;;;2.33;1.00;;;;;;;27.52;27.08;99868.81;12214209;19;20010;-80
2022/06/12 18:20:32;;;;;;;2.63;1.17;;;;;;;27.26;27.99;99870.13;12189290;19;20021;-82
2022/06/12 18:24:34;;;;;;;2.60;1.10;;;;;;;27.17;27.98;99865.81;12229085;19;52436;-82
2022/06/12 18:28:38;;;;;;;3.45;1.10;;;;;;;27.33;28.44;99869.47;12194052;19;20366;-81
2022/06/12 18:32:39;;;;;;;3.45;1.20;;;;;;;27.21;30.22;99864.72;12227460;19;20557;-81
2022/06/12 18:36:42;;;;;;;2.93;1.30;;;;;;;26.89;30.81;99868.56;12230047;19;20014;-82
2022/06/12 18:40:45;;;;;;;2.92;1.25;;;;;;;26.64;32.25;99877.13;12233984;19;20006;-81
2022/06/12 18:44:46;;;;;;;3.75;1.33;;;;;;;26.43;33.18;99880.06;12218765;19;20032;-81
2022/06/12 18:48:51;;;;;;;3.85;1.70;;;;;;;26.20;33.74;99878.91;12214625;19;20464;-83
2022/06/12 18:52:53;;;;;;;3.83;1.70;;;;;;;26.02;34.81;99875.50;12186965;19;20460;-82
2022/06/12 18:56:54;;;;;;;3.87;1.80;;;;;;;25.86;35.28;99878.19;12212361;19;20014;-81
2022/06/12 19:00:58;;;;;;;4.50;1.60;;;;;;;25.65;36.14;99876.25;12217809;19;20006;-81
2022/06/12 19:04:59;;;;;;;8.02;1.83;;;;;;;25.48;36.04;99879.25;12189686;19;20087;-81
2022/06/12 19:09:04;;;;;;;5.35;1.75;;;;;;;25.30;36.77;99880.63;12212165;19;20022;-82
2022/06/12 19:13:05;;;;;;;;;;;;;;;25.08;37.31;99881.78;12219136;19;20041;-81
2022/06/12 19:17:08;;;;;;;4.93;1.45;;;;;;;24.88;37.32;99884.28;12190076;19;20748;-82
2022/06/12 19:21:09;;;;;;;;;;;;;;;24.64;38.41;99890.59;12216540;19;19999;-80
2022/06/12 19:25:13;;;;;;;7.25;1.60;;;;;;;24.45;38.37;99888.25;12227429;19;19911;-80
2022/06/12 19:29:15;;;;;;;7.28;2.45;;;;;;;24.30;39.31;99891.59;12195922;19;20035;-80
2022/06/12 19:33:16;;;;;;;4.97;1.67;;;;;;;24.00;39.87;99897.22;12209103;19;20435;-80
2022/06/12 19:37:18;;;;;;;5.83;1.47;;;;;;;23.78;41.26;99903.09;12211123;19;20358;-81
2022/06/12 19:41:23;;;;;;;;;;;;;;;23.58;41.17;99905.44;12185742;19;20014;-80